createdAt,value
2023-01-12T00:01:30.619Z,6.20
2023-01-12T00:03:57.308Z,6.30
2023-01-12T00:06:23.957Z,6.20
2023-01-12T00:08:50.640Z,6.30
2023-01-12T00:11:17.299Z,5.80
2023-01-12T00:13:43.959Z,5.90
2023-01-12T00:16:10.718Z,6.00
2023-01-12T00:18:37.407Z,6.00
2023-01-12T00:21:04.148Z,5.90
2023-01-12T00:23:30.791Z,5.90
2023-01-12T00:25:57.738Z,6.00
2023-01-12T00:28:24.437Z,6.00
2023-01-12T00:30:51.104Z,6.00
2023-01-12T00:33:17.763Z,6.00
2023-01-12T00:35:44.475Z,5.30
2023-01-12T00:38:11.186Z,5.30
2023-01-12T00:40:37.849Z,4.80
2023-01-12T00:43:04.506Z,5.20
2023-01-12T00:45:31.215Z,5.60
2023-01-12T00:47:57.934Z,5.90
2023-01-12T00:50:24.634Z,5.50
2023-01-12T00:52:51.305Z,5.60
2023-01-12T00:55:17.978Z,5.70
2023-01-12T00:57:44.705Z,5.70
2023-01-12T01:00:11.353Z,5.90
2023-01-12T01:02:38.101Z,6.00
2023-01-12T01:05:04.839Z,6.10
2023-01-12T01:07:31.491Z,6.20
2023-01-12T01:09:58.193Z,6.10
2023-01-12T01:12:24.806Z,5.70
2023-01-12T01:14:51.464Z,5.80
2023-01-12T01:17:18.183Z,5.20
2023-01-12T01:19:44.877Z,5.00
2023-01-12T01:22:11.627Z,5.20
2023-01-12T01:24:38.869Z,5.50
2023-01-12T01:27:05.504Z,5.80
2023-01-12T01:29:32.339Z,5.90
2023-01-12T01:31:59.042Z,6.00
2023-01-12T01:34:25.721Z,6.00
2023-01-12T01:36:52.419Z,5.50
2023-01-12T01:39:19.103Z,5.40
2023-01-12T01:41:45.732Z,5.50
2023-01-12T01:44:12.392Z,5.00
2023-01-12T01:46:39.200Z,5.10
2023-01-12T01:49:05.871Z,5.20
2023-01-12T01:51:32.530Z,5.30
2023-01-12T01:53:59.276Z,5.50
2023-01-12T01:56:25.976Z,5.40
2023-01-12T01:58:52.647Z,5.50
2023-01-12T02:01:19.330Z,5.60
2023-01-12T02:03:46.081Z,5.70
2023-01-12T02:06:12.724Z,5.70
2023-01-12T02:08:39.444Z,5.80
2023-01-12T02:11:06.163Z,5.50
2023-01-12T02:13:32.850Z,5.40
2023-01-12T02:16:01.541Z,5.30
2023-01-12T02:18:28.270Z,5.30
2023-01-12T02:20:54.963Z,5.40
2023-01-12T02:23:21.679Z,5.40
2023-01-12T02:25:48.463Z,5.70
2023-01-12T02:28:15.125Z,5.50
2023-01-12T02:30:41.787Z,5.50
2023-01-12T02:33:08.454Z,5.70
2023-01-12T02:35:35.334Z,5.80
2023-01-12T02:38:01.936Z,5.70
2023-01-12T02:40:28.619Z,5.80
2023-01-12T02:42:55.304Z,5.80
2023-01-12T02:45:21.977Z,5.80
2023-01-12T02:47:48.754Z,5.80
2023-01-12T02:50:15.385Z,5.50
2023-01-12T02:52:42.223Z,5.30
2023-01-12T02:55:08.877Z,5.50
2023-01-12T02:57:35.535Z,5.50
2023-01-12T03:00:02.199Z,5.60
2023-01-12T03:02:28.860Z,5.70
2023-01-12T03:04:55.825Z,5.70
2023-01-12T03:07:22.477Z,5.50
2023-01-12T03:09:49.175Z,5.40
2023-01-12T03:12:16.036Z,5.60
2023-01-12T03:14:42.775Z,5.60
2023-01-12T03:17:09.420Z,5.60
2023-01-12T03:19:36.083Z,5.70
2023-01-12T03:22:02.701Z,5.80
2023-01-12T03:24:29.396Z,5.90
2023-01-12T03:26:56.023Z,5.90
2023-01-12T03:29:22.728Z,5.80
2023-01-12T03:31:49.474Z,5.60
2023-01-12T03:34:16.191Z,5.30
2023-01-12T03:36:43.005Z,5.30
2023-01-12T03:39:09.668Z,5.30
2023-01-12T03:41:36.328Z,5.60
2023-01-12T03:44:02.948Z,5.80
2023-01-12T03:46:29.978Z,5.90
2023-01-12T03:48:56.645Z,6.00
2023-01-12T03:51:23.287Z,5.90
2023-01-12T03:53:50.122Z,5.80
2023-01-12T03:56:16.792Z,5.90
2023-01-12T03:58:43.725Z,6.00
2023-01-12T04:01:10.415Z,6.00
2023-01-12T04:03:37.199Z,5.90
2023-01-12T04:06:03.876Z,6.00
2023-01-12T04:08:30.607Z,5.90
2023-01-12T04:10:57.535Z,5.80
2023-01-12T04:13:24.367Z,5.90
2023-01-12T04:15:51.077Z,5.60
2023-01-12T04:18:17.747Z,5.70
2023-01-12T04:20:44.445Z,5.90
2023-01-12T04:23:11.140Z,5.90
2023-01-12T04:25:37.779Z,5.80
2023-01-12T04:28:04.596Z,5.50
2023-01-12T04:30:31.237Z,5.70
2023-01-12T04:32:57.949Z,5.90
2023-01-12T04:35:24.751Z,6.00
2023-01-12T04:37:51.421Z,6.00
2023-01-12T04:40:18.083Z,6.00
2023-01-12T04:42:44.798Z,6.00
2023-01-12T04:45:11.472Z,6.00
2023-01-12T04:47:38.108Z,5.90
2023-01-12T04:50:04.753Z,5.90
2023-01-12T04:52:31.383Z,5.00
2023-01-12T04:54:58.040Z,4.70
2023-01-12T04:57:24.711Z,4.90
2023-01-12T04:59:51.392Z,5.30
2023-01-12T05:02:18.243Z,5.50
2023-01-12T05:04:44.900Z,5.60
2023-01-12T05:07:11.564Z,5.70
2023-01-12T05:09:38.209Z,5.80
2023-01-12T05:12:04.950Z,5.80
2023-01-12T05:14:31.628Z,5.70
2023-01-12T05:16:58.494Z,5.70
2023-01-12T05:19:25.426Z,5.60
2023-01-12T05:21:52.136Z,5.60
2023-01-12T05:24:19.067Z,5.50
2023-01-12T05:26:45.731Z,5.40
2023-01-12T05:29:12.382Z,5.50
2023-01-12T05:31:39.034Z,5.50
2023-01-12T05:34:05.694Z,4.80
2023-01-12T05:36:32.385Z,4.40
2023-01-12T05:38:59.046Z,4.70
2023-01-12T05:41:25.700Z,5.00
2023-01-12T05:43:52.568Z,5.10
2023-01-12T05:46:19.444Z,5.20
2023-01-12T05:48:46.196Z,5.20
2023-01-12T05:51:12.823Z,5.40
2023-01-12T05:53:39.527Z,5.30
2023-01-12T05:56:06.258Z,5.30
2023-01-12T05:58:32.927Z,5.30
2023-01-12T06:00:59.640Z,5.30
2023-01-12T06:03:27.828Z,5.40
2023-01-12T06:05:54.753Z,5.40
2023-01-12T06:08:21.444Z,5.30
2023-01-12T06:10:48.074Z,5.30
2023-01-12T06:13:14.716Z,5.30
2023-01-12T06:15:41.414Z,4.50
2023-01-12T06:18:08.104Z,4.40
2023-01-12T06:20:34.725Z,4.70
2023-01-12T06:23:01.680Z,5.00
2023-01-12T06:25:28.358Z,4.80
2023-01-12T06:27:55.246Z,4.90
2023-01-12T06:30:21.960Z,4.70
2023-01-12T06:32:48.586Z,4.80
2023-01-12T06:35:19.384Z,4.60
2023-01-12T06:37:46.585Z,4.70
2023-01-12T06:40:13.296Z,4.80
2023-01-12T06:42:40.215Z,4.60
2023-01-12T06:45:06.868Z,4.50
2023-01-12T06:47:33.566Z,4.50
2023-01-12T06:50:00.231Z,4.60
2023-01-12T06:52:27.109Z,4.50
2023-01-12T06:54:53.867Z,4.50
2023-01-12T06:57:20.609Z,4.40
2023-01-12T06:59:47.275Z,4.50
2023-01-12T07:02:14.057Z,4.50
2023-01-12T07:04:40.781Z,4.30
2023-01-12T07:07:07.502Z,4.40
2023-01-12T07:09:34.390Z,4.20
2023-01-12T07:12:01.055Z,4.40
2023-01-12T07:14:27.701Z,4.50
2023-01-12T07:16:54.386Z,4.40
2023-01-12T07:19:21.031Z,4.00
2023-01-12T07:21:47.679Z,4.30
2023-01-12T07:24:14.338Z,4.40
2023-01-12T07:26:41.036Z,4.40
2023-01-12T07:29:07.716Z,4.20
2023-01-12T07:31:34.405Z,4.10
2023-01-12T07:34:01.059Z,4.20
2023-01-12T07:36:27.692Z,4.10
2023-01-12T07:38:54.412Z,4.10
2023-01-12T07:41:21.147Z,4.00
2023-01-12T07:43:47.823Z,4.00
2023-01-12T07:46:14.523Z,4.50
2023-01-12T07:48:41.197Z,4.90
2023-01-12T07:51:07.901Z,5.10
2023-01-12T07:53:34.575Z,5.10
2023-01-12T07:56:01.199Z,4.90
2023-01-12T07:58:27.905Z,5.00
2023-01-12T08:00:54.759Z,4.90
2023-01-12T08:03:21.467Z,5.20
2023-01-12T08:05:48.195Z,5.40
2023-01-12T08:08:14.892Z,5.50
2023-01-12T08:10:41.608Z,5.40
2023-01-12T08:13:08.292Z,5.60
2023-01-12T08:15:35.020Z,6.10
2023-01-12T08:18:02.602Z,6.30
2023-01-12T08:20:30.546Z,6.50
2023-01-12T08:22:57.219Z,6.70
2023-01-12T08:25:23.837Z,6.80
2023-01-12T08:27:50.553Z,6.80
2023-01-12T08:30:17.294Z,6.70
2023-01-12T08:32:44.016Z,6.60
2023-01-12T08:35:10.651Z,6.80
2023-01-12T08:37:37.325Z,7.20
2023-01-12T08:40:04.026Z,7.40
2023-01-12T08:42:32.108Z,7.60
2023-01-12T08:44:58.824Z,7.40
2023-01-12T08:47:25.503Z,7.20
2023-01-12T08:49:52.280Z,7.50
2023-01-12T08:52:18.995Z,7.70
2023-01-12T08:54:46.687Z,7.70
2023-01-12T08:57:13.453Z,7.90
2023-01-12T08:59:40.111Z,8.10
2023-01-12T09:02:06.902Z,8.20
2023-01-12T09:04:33.642Z,8.30
2023-01-12T09:07:00.419Z,8.40
2023-01-12T09:09:27.391Z,8.60
2023-01-12T09:11:54.103Z,8.60
2023-01-12T09:14:20.778Z,8.60
2023-01-12T09:16:47.530Z,8.60
2023-01-12T09:19:14.335Z,8.70
2023-01-12T09:21:40.970Z,8.80
2023-01-12T09:24:07.662Z,9.00
2023-01-12T09:26:34.380Z,9.20
2023-01-12T09:29:01.235Z,9.30
2023-01-12T09:31:27.862Z,9.60
2023-01-12T09:33:54.526Z,9.80
2023-01-12T09:36:21.183Z,9.80
2023-01-12T09:38:47.868Z,9.90
2023-01-12T09:41:14.532Z,10.10
2023-01-12T09:43:41.217Z,10.30
2023-01-12T09:46:07.937Z,10.30
2023-01-12T09:48:34.626Z,10.00
2023-01-12T09:51:01.295Z,10.00
2023-01-12T09:53:27.976Z,10.10
2023-01-12T09:55:54.682Z,10.40
2023-01-12T09:58:21.337Z,10.80
2023-01-12T10:00:48.086Z,10.90
2023-01-12T10:03:14.799Z,11.20
2023-01-12T10:05:41.565Z,11.00
2023-01-12T10:08:08.195Z,10.50
2023-01-12T10:10:34.868Z,10.50
2023-01-12T10:13:01.512Z,10.80
2023-01-12T10:15:28.182Z,10.90
2023-01-12T10:17:54.844Z,11.20
2023-01-12T10:20:21.545Z,11.40
2023-01-12T10:22:48.221Z,11.50
2023-01-12T10:25:14.895Z,11.80
2023-01-12T10:27:41.713Z,11.90
2023-01-12T10:30:08.410Z,11.90
2023-01-12T10:32:41.889Z,12.00
2023-01-12T10:35:08.845Z,11.90
2023-01-12T10:37:35.491Z,12.10
2023-01-12T10:40:02.225Z,12.20
2023-01-12T10:42:28.860Z,12.40
2023-01-12T10:44:55.555Z,12.30
2023-01-12T10:47:22.201Z,12.20
2023-01-12T10:49:48.853Z,12.00
2023-01-12T10:52:15.490Z,12.00
2023-01-12T10:54:42.306Z,11.90
2023-01-12T10:57:08.993Z,11.90
2023-01-12T10:59:35.716Z,11.90
2023-01-12T11:02:02.485Z,11.90
2023-01-12T11:04:29.307Z,11.90
2023-01-12T11:06:55.944Z,11.60
2023-01-12T11:09:22.594Z,11.40
2023-01-12T11:11:49.207Z,11.30
2023-01-12T11:14:19.556Z,11.50
2023-01-12T11:16:49.309Z,11.40
2023-01-12T11:19:16.009Z,11.50
2023-01-12T11:21:42.660Z,11.60
2023-01-12T11:24:09.366Z,11.80
2023-01-12T11:26:36.087Z,11.80
2023-01-12T11:29:02.748Z,11.70
2023-01-12T11:31:29.409Z,11.90
2023-01-12T11:33:56.054Z,11.90
2023-01-12T11:36:22.680Z,11.50
2023-01-12T11:38:49.388Z,11.00
2023-01-12T11:41:16.731Z,11.20
2023-01-12T11:43:44.678Z,11.40
2023-01-12T11:46:11.357Z,11.30
2023-01-12T11:48:38.055Z,10.90
2023-01-12T11:51:04.728Z,10.70
2023-01-12T11:53:31.461Z,10.40
2023-01-12T11:55:58.099Z,10.70
2023-01-12T11:58:24.786Z,11.00
2023-01-12T12:00:51.551Z,11.10
2023-01-12T12:03:18.308Z,11.10
2023-01-12T12:05:44.979Z,11.50
2023-01-12T12:08:11.808Z,11.50
2023-01-12T12:10:38.529Z,11.60
2023-01-12T12:13:05.249Z,11.90
2023-01-12T12:15:31.949Z,12.20
2023-01-12T12:17:58.641Z,11.70
2023-01-12T12:20:25.314Z,11.40
2023-01-12T12:22:52.165Z,11.60
2023-01-12T12:25:18.886Z,11.60
2023-01-12T12:27:45.537Z,11.40
2023-01-12T12:30:12.201Z,11.60
2023-01-12T12:32:38.905Z,11.40
2023-01-12T12:35:05.612Z,11.00
2023-01-12T12:37:32.296Z,11.20
2023-01-12T12:39:58.979Z,11.60
2023-01-12T12:42:25.645Z,11.70
2023-01-12T12:44:52.486Z,11.50
2023-01-12T12:47:19.214Z,11.60
2023-01-12T12:49:46.697Z,11.70
2023-01-12T12:52:13.344Z,11.70
2023-01-12T12:54:40.038Z,11.90
2023-01-12T12:57:06.736Z,11.60
2023-01-12T12:59:33.406Z,11.40
2023-01-12T13:02:00.299Z,11.30
2023-01-12T13:04:27.035Z,11.40
2023-01-12T13:06:53.743Z,11.60
2023-01-12T13:09:20.436Z,11.80
2023-01-12T13:11:47.116Z,12.20
2023-01-12T13:14:13.935Z,12.10
2023-01-12T13:16:40.598Z,12.40
2023-01-12T13:19:07.450Z,12.40
2023-01-12T13:21:34.074Z,11.90
2023-01-12T13:24:00.735Z,12.00
2023-01-12T13:26:27.415Z,11.80
2023-01-12T13:28:54.054Z,11.60
2023-01-12T13:31:20.808Z,12.00
2023-01-12T13:33:47.742Z,12.30
2023-01-12T13:36:14.446Z,12.20
2023-01-12T13:38:41.136Z,12.20
2023-01-12T13:41:07.817Z,12.20
2023-01-12T13:43:34.452Z,12.50
2023-01-12T13:46:01.215Z,12.60
2023-01-12T13:48:28.113Z,12.50
2023-01-12T13:50:54.737Z,12.50
2023-01-12T13:53:21.397Z,12.50
2023-01-12T13:55:48.080Z,12.40
2023-01-12T13:58:14.751Z,12.60
2023-01-12T14:00:41.603Z,12.40
2023-01-12T14:03:08.344Z,12.50
2023-01-12T14:05:35.067Z,12.30
2023-01-12T14:08:01.772Z,12.30
2023-01-12T14:10:28.448Z,12.30
2023-01-12T14:12:55.121Z,12.60
2023-01-12T14:15:21.837Z,12.60
2023-01-12T14:17:48.470Z,12.70
2023-01-12T14:20:15.146Z,12.80
2023-01-12T14:22:41.900Z,12.80
2023-01-12T14:25:08.573Z,12.50
2023-01-12T14:27:35.235Z,12.30
2023-01-12T14:30:01.872Z,12.50
2023-01-12T14:32:28.591Z,12.10
2023-01-12T14:34:55.284Z,12.20
2023-01-12T14:37:21.972Z,12.10
2023-01-12T14:39:48.619Z,12.20
2023-01-12T14:42:15.253Z,12.30
2023-01-12T14:44:42.110Z,12.30
2023-01-12T14:47:08.930Z,12.40
2023-01-12T14:49:35.642Z,12.20
2023-01-12T14:52:02.275Z,12.00
2023-01-12T14:54:28.919Z,11.90
2023-01-12T14:56:55.575Z,11.80
2023-01-12T14:59:22.207Z,11.20
2023-01-12T15:01:48.994Z,10.90
2023-01-12T15:04:15.815Z,11.10
2023-01-12T15:06:42.467Z,11.30
2023-01-12T15:09:09.096Z,11.30
2023-01-12T15:11:35.742Z,11.20
2023-01-12T15:14:02.389Z,11.00
2023-01-12T15:16:29.145Z,11.00
2023-01-12T15:18:55.824Z,10.90
2023-01-12T15:21:22.504Z,10.80
2023-01-12T15:23:49.152Z,10.80
2023-01-12T15:26:15.835Z,10.70
2023-01-12T15:28:42.552Z,10.70
2023-01-12T15:31:09.183Z,10.10
2023-01-12T15:33:35.845Z,9.40
2023-01-12T15:36:02.479Z,9.30
2023-01-12T15:38:29.162Z,9.00
2023-01-12T15:40:55.849Z,9.00
2023-01-12T15:43:22.544Z,9.30
2023-01-12T15:45:49.309Z,9.40
2023-01-12T15:48:15.960Z,9.40
2023-01-12T15:50:42.690Z,9.40
2023-01-12T15:53:09.318Z,9.40
2023-01-12T15:55:36.175Z,8.50
2023-01-12T15:58:03.814Z,8.80
2023-01-12T16:00:30.536Z,8.90
2023-01-12T16:02:57.234Z,8.50
2023-01-12T16:05:23.980Z,8.50
2023-01-12T16:07:50.740Z,8.50
2023-01-12T16:10:17.555Z,8.60
2023-01-12T16:12:44.485Z,8.70
2023-01-12T16:15:11.151Z,8.70
2023-01-12T16:17:37.863Z,8.60
2023-01-12T16:20:04.485Z,8.50
2023-01-12T16:22:31.214Z,8.50
2023-01-12T16:24:57.929Z,8.50
2023-01-12T16:27:24.724Z,8.50
2023-01-12T16:29:51.362Z,8.00
2023-01-12T16:32:18.396Z,7.90
2023-01-12T16:34:45.150Z,7.90
2023-01-12T16:37:11.841Z,7.70
2023-01-12T16:39:38.488Z,7.60
2023-01-12T16:42:05.116Z,7.40
2023-01-12T16:44:31.835Z,7.50
2023-01-12T16:46:58.465Z,7.50
2023-01-12T16:49:25.108Z,6.90
2023-01-12T16:51:51.801Z,6.80
2023-01-12T16:54:18.449Z,6.90
2023-01-12T16:56:45.153Z,6.80
2023-01-12T16:59:11.832Z,7.00
2023-01-12T17:01:38.690Z,6.80
2023-01-12T17:04:05.532Z,6.60
2023-01-12T17:06:32.254Z,6.80
2023-01-12T17:08:59.257Z,7.10
2023-01-12T17:11:26.028Z,7.20
2023-01-12T17:13:52.795Z,6.40
2023-01-12T17:16:19.725Z,6.60
2023-01-12T17:18:46.478Z,6.70
2023-01-12T17:21:13.216Z,6.50
2023-01-12T17:23:40.075Z,6.60
2023-01-12T17:26:06.739Z,6.80
2023-01-12T17:28:33.704Z,7.10
2023-01-12T17:31:00.490Z,7.30
2023-01-12T17:33:27.383Z,7.30
2023-01-12T17:35:54.082Z,7.20
2023-01-12T17:38:21.517Z,6.80
2023-01-12T17:40:49.032Z,6.60
2023-01-12T17:43:15.722Z,6.60
2023-01-12T17:45:42.449Z,6.70
2023-01-12T17:48:09.116Z,6.90
2023-01-12T17:50:35.821Z,7.00
2023-01-12T17:53:02.727Z,6.80
2023-01-12T17:55:29.586Z,6.80
2023-01-12T17:57:56.545Z,7.00
2023-01-12T18:00:23.212Z,7.00
2023-01-12T18:02:50.747Z,6.80
2023-01-12T18:05:17.512Z,6.80
2023-01-12T18:07:44.153Z,6.90
2023-01-12T18:10:10.906Z,7.00
2023-01-12T18:12:37.533Z,6.60
2023-01-12T18:15:04.236Z,6.80
2023-01-12T18:17:30.925Z,7.00
2023-01-12T18:19:57.746Z,6.80
2023-01-12T18:22:24.399Z,6.80
2023-01-12T18:24:51.115Z,6.80
2023-01-12T18:27:17.782Z,6.80
2023-01-12T18:29:44.443Z,6.90
2023-01-12T18:32:11.165Z,6.60
2023-01-12T18:34:37.833Z,6.00
2023-01-12T18:37:04.484Z,5.70
2023-01-12T18:39:31.121Z,6.20
2023-01-12T18:41:57.776Z,6.20
2023-01-12T18:44:24.465Z,6.50
2023-01-12T18:46:51.115Z,6.70
2023-01-12T18:49:17.766Z,6.80
2023-01-12T18:51:44.429Z,6.90
2023-01-12T18:54:11.147Z,6.50
2023-01-12T18:56:37.861Z,5.80
2023-01-12T18:59:04.523Z,6.00
2023-01-12T19:01:31.258Z,6.20
2023-01-12T19:03:58.064Z,6.10
2023-01-12T19:06:24.771Z,6.30
2023-01-12T19:08:51.506Z,6.50
2023-01-12T19:11:18.187Z,6.70
2023-01-12T19:13:44.905Z,6.80
2023-01-12T19:16:11.648Z,6.90
2023-01-12T19:18:38.467Z,6.90
2023-01-12T19:21:05.155Z,6.90
2023-01-12T19:23:31.830Z,6.90
2023-01-12T19:25:58.485Z,7.00
2023-01-12T19:28:25.405Z,6.80
2023-01-12T19:30:52.182Z,6.70
2023-01-12T19:33:18.868Z,6.80
2023-01-12T19:35:45.521Z,6.60
2023-01-12T19:38:12.199Z,6.70
2023-01-12T19:40:38.857Z,6.80
2023-01-12T19:43:05.527Z,6.90
2023-01-12T19:45:32.201Z,6.70
2023-01-12T19:47:58.926Z,6.70
2023-01-12T19:50:25.586Z,6.60
2023-01-12T19:52:52.325Z,6.60
2023-01-12T19:55:18.980Z,6.60
2023-01-12T19:57:45.655Z,6.80
2023-01-12T20:00:12.539Z,6.30
2023-01-12T20:02:39.209Z,6.40
2023-01-12T20:05:05.914Z,6.40
2023-01-12T20:07:32.638Z,6.10
2023-01-12T20:09:59.329Z,6.00
2023-01-12T20:12:25.992Z,6.00
2023-01-12T20:14:52.761Z,6.30
2023-01-12T20:17:19.401Z,6.40
2023-01-12T20:19:46.057Z,6.60
2023-01-12T20:22:12.732Z,6.60
2023-01-12T20:24:39.435Z,6.70
2023-01-12T20:27:06.218Z,6.70
2023-01-12T20:29:32.886Z,6.50
2023-01-12T20:31:59.549Z,6.30
2023-01-12T20:34:26.269Z,5.80
2023-01-12T20:36:52.943Z,6.10
2023-01-12T20:39:19.632Z,6.30
2023-01-12T20:41:46.257Z,6.40
2023-01-12T20:44:12.981Z,6.10
2023-01-12T20:46:39.691Z,6.20
2023-01-12T20:49:06.389Z,6.10
2023-01-12T20:51:33.083Z,6.30
2023-01-12T20:54:00.747Z,6.20
2023-01-12T20:56:27.542Z,6.20
2023-01-12T20:58:54.215Z,6.00
2023-01-12T21:01:20.956Z,5.90
2023-01-12T21:03:47.714Z,5.90
2023-01-12T21:06:14.488Z,5.70
2023-01-12T21:08:41.161Z,6.00
2023-01-12T21:11:07.797Z,5.70
2023-01-12T21:13:34.496Z,5.60
2023-01-12T21:16:01.126Z,5.50
2023-01-12T21:18:27.842Z,5.30
2023-01-12T21:20:54.554Z,5.50
2023-01-12T21:23:21.225Z,5.60
2023-01-12T21:25:47.886Z,5.50
2023-01-12T21:28:14.580Z,4.80
2023-01-12T21:30:41.305Z,5.00
2023-01-12T21:33:08.100Z,5.30
2023-01-12T21:35:34.776Z,5.40
2023-01-12T21:38:01.441Z,5.60
2023-01-12T21:40:28.167Z,5.40
2023-01-12T21:42:54.885Z,5.40
2023-01-12T21:45:21.567Z,5.60
2023-01-12T21:47:48.264Z,5.80
2023-01-12T21:50:14.946Z,5.90
2023-01-12T21:52:41.633Z,5.90
2023-01-12T21:55:08.315Z,5.80
2023-01-12T21:57:35.247Z,5.60
2023-01-12T22:00:01.937Z,5.70
2023-01-12T22:02:28.583Z,5.90
2023-01-12T22:04:55.233Z,5.90
2023-01-12T22:07:21.887Z,5.80
2023-01-12T22:09:48.585Z,5.60
2023-01-12T22:12:15.272Z,5.70
2023-01-12T22:14:41.910Z,5.60
2023-01-12T22:17:08.523Z,5.70
2023-01-12T22:19:35.247Z,5.30
2023-01-12T22:22:01.875Z,5.50
2023-01-12T22:24:28.479Z,5.60
2023-01-12T22:26:55.158Z,5.70
2023-01-12T22:29:21.935Z,5.70
2023-01-12T22:31:48.635Z,5.50
2023-01-12T22:34:15.339Z,5.60
2023-01-12T22:36:42.017Z,5.50
2023-01-12T22:39:08.901Z,5.40
2023-01-12T22:41:35.637Z,4.80
2023-01-12T22:44:02.323Z,5.00
2023-01-12T22:46:28.985Z,5.40
2023-01-12T22:48:55.645Z,5.60
2023-01-12T22:51:22.350Z,5.80
2023-01-12T22:53:49.008Z,5.80
2023-01-12T22:56:15.683Z,5.60
2023-01-12T22:58:42.384Z,5.70
2023-01-12T23:01:09.147Z,5.80
2023-01-12T23:03:35.977Z,5.60
2023-01-12T23:06:02.726Z,5.70
2023-01-12T23:08:29.401Z,5.80
2023-01-12T23:10:56.144Z,5.60
2023-01-12T23:13:22.830Z,5.70
2023-01-12T23:15:49.562Z,5.60
2023-01-12T23:18:16.260Z,5.70
2023-01-12T23:20:42.952Z,5.90
2023-01-12T23:23:09.639Z,6.00
2023-01-12T23:25:36.335Z,6.00
2023-01-12T23:28:05.392Z,6.00
2023-01-12T23:30:32.072Z,6.20
2023-01-12T23:32:58.817Z,6.30
2023-01-12T23:35:25.479Z,5.80
2023-01-12T23:37:52.164Z,5.90
2023-01-12T23:40:18.862Z,5.80
2023-01-12T23:42:45.547Z,5.50
2023-01-12T23:45:12.223Z,5.50
2023-01-12T23:47:38.930Z,5.20
2023-01-12T23:50:05.619Z,5.50
2023-01-12T23:52:32.271Z,5.80
2023-01-12T23:54:58.979Z,5.50
2023-01-12T23:57:25.663Z,5.50
2023-01-12T23:59:52.332Z,5.80
